Bethlehem, Georgia
Current Conditions -  °F | °C
As of 8:15 AM on Tuesday 21 Oct 2014 (Local Time) from KWDR Reporting Station
Clear Clear  
Wind Chill: 54°   Ceiling: Unl
Heat Index: 54°   Visibility: 10mi
Dew Point: 52°   Wind: 7mph
Humidity: 92%   Direction: 310°NW
Pressure: 30.03"   Gusts: NA
Location:  33.93°N, 83.71°W
Report Text: KWDR 211215Z AUTO 31006KT 10SM CLR 12/11 A3003 RMK AO2 T01220109
Loading
Personal Weather Stations






























Interactive Weather Map
Tropical Storm Tracking
New forecast layout! Learn more

10-Day Weather Forecast

Advertisements
Track Severe Weather on mobile